• Join FlightAware (Why Join?)
  • Login
  • US Flag 
10:57AM EDT


 

Airport Tracker/Info


-or-


 

Live Flight TrackerFlight Track Log ✈ JZA8474 ✈ 08-May-2013 ✈ CYCG - CYYC

Flight Track Log - Related Links

Times and Time Zones

All times are in EDT time to prevent confusion due to time zone crossing. See the JZA8474 flight status page for this flight to view local times or setup timezone preferences in your user account.

Time Position Orientation Groundspeed Altitude Reporting Facility
EDT Latitude Longitude Course Direction KTS MPH feet Rate Location/Type
02:46PM 49.5701 -117.1756 45° Northeast  Level FlightAware Approximate
02:47PM 49.6176 -117.1011 46° Northeast  Level FlightAware Approximate
02:48PM 49.6640 -117.0252 49° Northeast  Level FlightAware Approximate
02:48PM 49.5500 -117.3167 47° Northeast 250 288 10,300  Level Vancouver Center
02:49PM 49.7085 -116.9463 49° Northeast  Level FlightAware Approximate
02:49PM 49.6000 -117.2333 47° Northeast 220 253 11,200  Level Vancouver Center
02:50PM 49.7529 -116.8673 49° Northeast  Level FlightAware Approximate
02:50PM 49.6333 -117.1667 52° Northeast 220 253 12,100  Level Vancouver Center
02:51PM 49.7973 -116.7882 49° Northeast  Level FlightAware Approximate
02:51PM 49.6833 -117.1167 33° Northeast 220 253 13,200  Level Vancouver Center
02:52PM 49.8434 -116.7113 47° Northeast  Level FlightAware Approximate
02:52PM 49.7167 -117.0333 58° Northeast 220 253 14,400  Level Vancouver Center
02:53PM 49.8895 -116.6345 47° Northeast  Level FlightAware Approximate
02:53PM 49.7500 -116.9500 58° Northeast 230 265 15,400  Level Vancouver Center
02:54PM 49.8000 -116.8833 41° Northeast 220 253 16,500 960 Climbing Vancouver Center
02:55PM 49.8500 -116.8000 47° Northeast 220 253 17,400 900 Climbing Vancouver Center
02:56PM 49.8667 -116.7500 63° Northeast 220 253 18,300 840 Climbing Vancouver Center
02:57PM 49.9167 -116.6667 47° Northeast 220 253 19,100 900 Climbing Vancouver Center
02:58PM 49.9667 -116.6000 41° Northeast 220 253 20,100 840 Climbing Vancouver Center
02:59PM 50.0000 -116.5167 58° Northeast 220 253 20,800 420 Climbing Vancouver Center
03:00PM 50.0333 -116.4333 58° Northeast 220 253 21,000 60 Climbing Vancouver Center
03:01PM 50.0833 -116.3833 33° Northeast 250 288 21,000  Level Vancouver Center
03:02PM 50.1333 -116.2833 52° Northeast 270 311 21,000  Level Vancouver Center
03:03PM 50.1667 -116.1833 62° Northeast 270 311 21,000  Level Vancouver Center
03:04PM 50.2333 -116.0833 44° Northeast 270 311 21,000  Level Vancouver Center
03:04PM 50.2333 -116.1167 270° West 270 311 21,000  Level Edmonton Center
03:05PM 50.2667 -116.0500 52° Northeast 270 311 21,000  Level Edmonton Center
03:06PM 50.3333 -115.9500 44° Northeast 270 311 21,000  Level Edmonton Center
03:07PM 50.3833 -115.8667 47° Northeast 270 311 21,000  Level Edmonton Center
03:08PM 50.4167 -115.7667 62° Northeast 270 311 21,000  Level Edmonton Center
03:09PM 50.4833 -115.6667 44° Northeast 270 311 21,000  Level Edmonton Center
03:10PM 50.5167 -115.6000 52° Northeast 270 311 21,000  Level Edmonton Center
03:11PM 50.5667 -115.5000 52° Northeast 270 311 21,000  Level Edmonton Center
03:12PM 50.6167 -115.4167 47° Northeast 270 311 21,000 -600 Level Edmonton Center
03:13PM 50.6667 -115.3167 52° Northeast 280 322 19,900 -1,260 Descending Edmonton Center
03:14PM 50.7333 -115.2000 48° Northeast 310 357 18,500 -1,260 Descending Edmonton Center
03:15PM 50.7833 -115.0667 59° Northeast 310 357 17,900 -1,320 Descending Vancouver Center
03:16PM 50.8167 -114.9833 58° Northeast 310 357 16,400 -1,440 Descending Vancouver Center
03:17PM 50.8667 -114.8667 56° Northeast 300 345 14,500 -1,320 Descending Edmonton Center
03:18PM 50.8833 -114.7500 77° East 280 322 13,400 -1,260 Descending Edmonton Center
03:19PM 50.9333 -114.6500 52° Northeast 280 322 12,000 -1,500 Descending Edmonton Center
03:20PM 51.0000 -114.5500 43° Northeast 280 322 10,400 -1,500 Descending Edmonton Center
03:21PM 51.0333 -114.4500 62° Northeast 280 322 9,000 -1,500 Descending Edmonton Center
03:22PM 51.0833 -114.3500 51° Northeast 280 322 7,500 -1,200 Descending Edmonton Center
03:23PM 51.1167 -114.2500 62° Northeast 250 288 6,700 -840 Descending Edmonton Center